createdAt,value
2019-03-05T00:00:00.398Z,4.33
2019-03-05T00:02:33.293Z,3.43
2019-03-05T00:05:06.759Z,3.80
2019-03-05T00:07:35.360Z,4.00
2019-03-05T00:10:07.781Z,3.57
2019-03-05T00:12:36.700Z,3.97
2019-03-05T00:15:13.612Z,4.30
2019-03-05T00:17:42.181Z,4.53
2019-03-05T00:20:14.730Z,4.40
2019-03-05T00:22:43.340Z,5.00
2019-03-05T00:25:22.705Z,3.80
2019-03-05T00:27:57.253Z,4.17
2019-03-05T00:30:46.248Z,4.43
2019-03-05T00:33:20.795Z,3.97
2019-03-05T00:36:15.892Z,4.40
2019-03-05T00:38:56.400Z,4.53
2019-03-05T00:41:44.820Z,4.97
2019-03-05T00:44:28.439Z,4.73
2019-03-05T00:47:16.622Z,5.33
2019-03-05T00:49:57.249Z,5.67
2019-03-05T00:52:47.062Z,4.97
2019-03-05T00:55:41.487Z,5.20
2019-03-05T00:58:18.803Z,5.30
2019-03-05T01:01:10.060Z,4.37
2019-03-05T01:04:19.117Z,5.27
2019-03-05T01:06:48.376Z,6.90
2019-03-05T01:09:21.553Z,5.20
2019-03-05T01:11:53.411Z,4.80
2019-03-05T01:14:25.781Z,4.60
2019-03-05T01:16:57.344Z,4.10
2019-03-05T01:19:28.720Z,4.97
2019-03-05T01:21:57.305Z,4.60
2019-03-05T01:24:28.888Z,4.17
2019-03-05T01:27:00.572Z,4.83
2019-03-05T01:29:32.742Z,4.27
2019-03-05T01:32:05.715Z,4.77
2019-03-05T01:34:38.907Z,4.20
2019-03-05T01:37:09.119Z,4.70
2019-03-05T01:39:42.635Z,4.77
2019-03-05T01:42:14.422Z,4.67
2019-03-05T01:44:46.104Z,4.20
2019-03-05T01:47:17.440Z,4.70
2019-03-05T01:49:46.095Z,6.20
2019-03-05T01:52:17.365Z,4.20
2019-03-05T01:54:48.944Z,4.27
2019-03-05T01:57:17.502Z,4.47
2019-03-05T01:59:46.428Z,4.60
2019-03-05T02:02:17.963Z,4.40
2019-03-05T02:04:49.348Z,3.93
2019-03-05T02:07:18.569Z,4.60
2019-03-05T02:09:47.146Z,4.50
2019-03-05T02:12:18.458Z,4.77
2019-03-05T02:14:47.031Z,4.20
2019-03-05T02:17:18.338Z,5.30
2019-03-05T02:19:47.248Z,5.17
2019-03-05T02:22:28.075Z,3.67
2019-03-05T02:25:05.704Z,4.30
2019-03-05T02:27:46.517Z,4.57
2019-03-05T02:30:33.378Z,4.40
2019-03-05T02:33:57.169Z,4.17
2019-03-05T02:37:05.941Z,4.93
2019-03-05T02:39:49.653Z,4.33
2019-03-05T02:42:39.419Z,3.83
2019-03-05T02:45:25.799Z,4.27
2019-03-05T02:48:03.683Z,3.60
2019-03-05T02:50:51.869Z,4.63
2019-03-05T02:53:23.491Z,3.60
2019-03-05T02:56:28.237Z,3.90
2019-03-05T02:58:55.913Z,3.33
2019-03-05T03:01:26.794Z,3.53
2019-03-05T03:04:00.154Z,3.30
2019-03-05T03:06:30.161Z,3.07
2019-03-05T03:09:26.090Z,2.83
2019-03-05T03:11:57.401Z,3.07
2019-03-05T03:14:28.664Z,2.57
2019-03-05T03:16:59.958Z,2.50
2019-03-05T03:19:28.529Z,2.83
2019-03-05T03:21:57.075Z,2.50
2019-03-05T03:24:28.514Z,2.77
2019-03-05T03:26:59.835Z,2.70
2019-03-05T03:29:31.095Z,2.20
2019-03-05T03:32:02.364Z,3.10
2019-03-05T03:34:33.691Z,2.63
2019-03-05T03:37:02.239Z,2.33
2019-03-05T03:39:33.810Z,2.93
2019-03-05T03:42:05.319Z,2.53
2019-03-05T03:44:39.385Z,3.17
2019-03-05T03:47:10.817Z,2.23
2019-03-05T03:49:42.309Z,2.50
2019-03-05T03:52:13.612Z,2.50
2019-03-05T03:54:45.039Z,2.37
2019-03-05T03:57:13.798Z,2.60
2019-03-05T03:59:45.453Z,3.40
2019-03-05T04:02:16.926Z,2.17
2019-03-05T04:04:45.639Z,3.13
2019-03-05T04:07:15.020Z,2.80
2019-03-05T04:09:46.340Z,2.10
2019-03-05T04:12:17.817Z,2.43
2019-03-05T04:14:49.129Z,2.50
2019-03-05T04:17:20.771Z,2.87
2019-03-05T04:19:52.358Z,2.70
2019-03-05T04:22:23.929Z,1.93
2019-03-05T04:24:52.497Z,2.33
2019-03-05T04:27:23.789Z,2.53
2019-03-05T04:29:52.358Z,2.60
2019-03-05T04:32:24.079Z,2.93
2019-03-05T04:34:55.545Z,2.07
2019-03-05T04:37:26.955Z,3.23
2019-03-05T04:39:58.533Z,2.57
2019-03-05T04:42:29.906Z,2.27
2019-03-05T04:45:03.122Z,2.27
2019-03-05T04:47:31.732Z,2.20
2019-03-05T04:50:01.983Z,2.83
2019-03-05T04:52:30.589Z,2.10
2019-03-05T04:55:01.966Z,2.60
2019-03-05T04:57:33.898Z,2.43
2019-03-05T05:00:08.806Z,2.27
2019-03-05T05:02:40.247Z,2.83
2019-03-05T05:05:12.571Z,3.23
2019-03-05T05:07:41.264Z,2.40
2019-03-05T05:10:12.682Z,3.07
2019-03-05T05:12:44.456Z,2.77
2019-03-05T05:15:34.157Z,2.90
2019-03-05T05:18:03.078Z,3.17
2019-03-05T05:20:31.801Z,2.97
2019-03-05T05:23:00.416Z,2.80
2019-03-05T05:25:31.905Z,2.70
2019-03-05T05:28:03.199Z,2.90
2019-03-05T05:30:55.406Z,2.50
2019-03-05T05:33:24.075Z,2.60
2019-03-05T05:35:55.574Z,3.03
2019-03-05T05:38:24.457Z,3.23
2019-03-05T05:40:55.986Z,3.00
2019-03-05T05:43:29.597Z,2.80
2019-03-05T05:46:01.156Z,3.20
2019-03-05T05:50:53.647Z,2.93
2019-03-05T05:53:22.194Z,3.10
2019-03-05T05:55:50.824Z,3.40
2019-03-05T05:58:19.380Z,4.03
2019-03-05T06:00:52.492Z,2.80
2019-03-05T06:03:21.107Z,2.93
2019-03-05T06:05:49.739Z,3.10
2019-03-05T06:08:21.239Z,3.80
2019-03-05T06:10:53.344Z,3.47
2019-03-05T06:13:24.789Z,3.27
2019-03-05T06:15:56.137Z,3.60
2019-03-05T06:18:27.408Z,3.00
2019-03-05T06:20:58.996Z,3.77
2019-03-05T06:23:27.610Z,3.87
2019-03-05T06:25:58.911Z,3.17
2019-03-05T06:28:30.604Z,4.40
2019-03-05T06:31:01.865Z,4.20
2019-03-05T06:33:30.498Z,3.93
2019-03-05T06:36:02.019Z,3.60
2019-03-05T06:38:33.512Z,3.30
2019-03-05T06:41:02.786Z,3.77
2019-03-05T06:43:34.040Z,3.23
2019-03-05T06:46:05.598Z,3.47
2019-03-05T06:48:38.820Z,3.07
2019-03-05T06:51:09.031Z,3.20
2019-03-05T06:53:37.638Z,3.83
2019-03-05T06:56:09.292Z,5.47
2019-03-05T06:58:40.613Z,2.80
2019-03-05T07:01:15.161Z,3.60
2019-03-05T07:03:43.729Z,3.20
2019-03-05T07:06:49.978Z,3.20
2019-03-05T07:09:33.703Z,3.17
2019-03-05T07:12:08.233Z,3.80
2019-03-05T07:15:02.210Z,3.13
2019-03-05T07:17:56.606Z,3.17
2019-03-05T07:20:53.908Z,2.50
2019-03-05T07:23:31.405Z,2.80
2019-03-05T07:26:03.050Z,2.27
2019-03-05T07:28:34.363Z,2.60
2019-03-05T07:31:05.724Z,2.53
2019-03-05T07:33:37.393Z,2.63
2019-03-05T07:36:10.488Z,2.40
2019-03-05T07:38:42.222Z,2.47
2019-03-05T07:41:13.868Z,2.30
2019-03-05T07:43:45.458Z,2.70
2019-03-05T07:46:16.691Z,2.40
2019-03-05T07:48:45.256Z,2.70
2019-03-05T07:51:16.892Z,2.67
2019-03-05T07:53:48.407Z,2.87
2019-03-05T07:56:16.954Z,2.37
2019-03-05T07:58:48.272Z,2.17
2019-03-05T08:01:22.543Z,1.70
2019-03-05T08:03:53.219Z,2.30
2019-03-05T08:06:24.812Z,2.40
2019-03-05T08:09:31.013Z,2.33
2019-03-05T08:12:23.382Z,2.67
2019-03-05T08:15:09.607Z,2.10
2019-03-05T08:17:41.088Z,1.63
2019-03-05T08:20:12.775Z,2.17
2019-03-05T08:22:44.042Z,1.60
2019-03-05T08:25:15.370Z,2.40
2019-03-05T08:27:47.247Z,1.93
2019-03-05T08:30:18.786Z,2.13
2019-03-05T08:32:50.415Z,2.00
2019-03-05T08:35:21.854Z,1.87
2019-03-05T08:37:53.428Z,1.77
2019-03-05T08:40:24.904Z,2.17
2019-03-05T08:42:56.892Z,2.00
2019-03-05T08:45:29.763Z,2.50
2019-03-05T08:48:01.125Z,2.20
2019-03-05T08:50:32.406Z,2.30
2019-03-05T08:53:00.954Z,1.87
2019-03-05T08:55:32.884Z,2.77
2019-03-05T08:58:04.628Z,2.90
2019-03-05T09:00:38.056Z,3.23
2019-03-05T09:03:09.634Z,2.00
2019-03-05T09:05:40.930Z,2.23
2019-03-05T09:08:33.830Z,2.37
2019-03-05T09:11:05.184Z,2.57
2019-03-05T09:13:33.988Z,2.60
2019-03-05T09:16:07.835Z,2.43
2019-03-05T09:18:38.875Z,1.50
2019-03-05T09:21:10.417Z,2.27
2019-03-05T09:23:40.981Z,2.17
2019-03-05T09:26:12.287Z,2.47
2019-03-05T09:28:44.035Z,2.63
2019-03-05T09:31:15.265Z,1.90
2019-03-05T09:33:43.820Z,2.90
2019-03-05T09:36:12.639Z,2.20
2019-03-05T09:38:43.865Z,2.07
2019-03-05T09:41:12.427Z,2.40
2019-03-05T09:43:43.705Z,2.27
2019-03-05T09:46:12.298Z,2.47
2019-03-05T09:48:43.679Z,2.30
2019-03-05T09:51:12.300Z,2.60
2019-03-05T09:53:40.864Z,2.87
2019-03-05T09:56:09.525Z,2.07
2019-03-05T09:58:41.027Z,2.73
2019-03-05T10:01:09.644Z,2.67
2019-03-05T10:03:39.712Z,2.33
2019-03-05T10:06:09.943Z,2.60
2019-03-05T10:08:39.297Z,2.53
2019-03-05T10:11:11.043Z,2.90
2019-03-05T10:13:40.074Z,2.33
2019-03-05T10:16:11.917Z,2.50
2019-03-05T10:18:43.485Z,3.77
2019-03-05T10:21:16.264Z,2.30
2019-03-05T10:23:48.517Z,2.60
2019-03-05T10:26:18.585Z,2.63
2019-03-05T10:28:50.414Z,2.10
2019-03-05T10:31:22.003Z,2.77
2019-03-05T10:33:50.622Z,2.30
2019-03-05T10:36:22.214Z,2.17
2019-03-05T10:38:57.342Z,1.97
2019-03-05T10:41:24.257Z,2.40
2019-03-05T10:43:55.525Z,2.40
2019-03-05T10:46:27.422Z,2.03
2019-03-05T10:48:55.978Z,2.07
2019-03-05T10:51:27.817Z,2.30
2019-03-05T10:53:56.544Z,2.20
2019-03-05T10:56:25.472Z,2.07
2019-03-05T10:58:56.744Z,2.20
2019-03-05T11:01:28.543Z,2.30
2019-03-05T11:03:57.367Z,1.90
2019-03-05T11:06:26.080Z,3.00
2019-03-05T11:08:54.726Z,2.07
2019-03-05T11:11:26.283Z,2.47
2019-03-05T11:13:57.961Z,2.10
2019-03-05T11:16:31.024Z,2.13
2019-03-05T11:19:02.831Z,2.00
2019-03-05T11:21:31.483Z,3.00
2019-03-05T11:24:03.069Z,2.23
2019-03-05T11:26:34.339Z,2.40
2019-03-05T11:29:07.079Z,2.80
2019-03-05T11:31:38.744Z,2.30
2019-03-05T11:34:10.119Z,2.00
2019-03-05T11:36:38.727Z,2.30
2019-03-05T11:39:10.410Z,2.87
2019-03-05T11:41:40.349Z,2.00
2019-03-05T11:44:10.604Z,2.70
2019-03-05T11:46:41.881Z,2.70
2019-03-05T11:49:13.368Z,2.37
2019-03-05T11:51:44.937Z,2.57
2019-03-05T11:54:16.313Z,2.40
2019-03-05T11:56:44.922Z,2.07
2019-03-05T11:59:16.294Z,2.53
2019-03-05T12:01:47.773Z,2.60
2019-03-05T12:04:21.604Z,2.40
2019-03-05T12:06:52.198Z,2.10
2019-03-05T12:09:21.501Z,2.00
2019-03-05T12:11:52.766Z,2.53
2019-03-05T12:14:24.551Z,2.20
2019-03-05T12:16:53.483Z,2.60
2019-03-05T12:19:25.011Z,2.57
2019-03-05T12:21:56.951Z,2.37
2019-03-05T12:24:28.732Z,2.07
2019-03-05T12:27:00.474Z,2.93
2019-03-05T12:29:31.894Z,3.37
2019-03-05T12:32:00.502Z,2.90
2019-03-05T12:34:32.103Z,2.90
2019-03-05T12:37:03.472Z,2.20
2019-03-05T12:39:34.781Z,2.70
2019-03-05T12:42:08.076Z,2.37
2019-03-05T12:44:42.042Z,2.20
2019-03-05T12:47:10.861Z,2.53
2019-03-05T12:49:42.555Z,2.50
2019-03-05T12:52:11.463Z,2.50
2019-03-05T12:54:43.235Z,2.17
2019-03-05T12:57:14.512Z,2.23
2019-03-05T12:59:46.093Z,2.40
2019-03-05T13:02:17.483Z,1.90
2019-03-05T13:04:48.852Z,2.00
2019-03-05T13:07:20.430Z,2.30
2019-03-05T13:09:52.647Z,2.20
2019-03-05T13:12:19.508Z,2.43
2019-03-05T13:14:50.867Z,3.00
2019-03-05T13:17:19.474Z,2.70
2019-03-05T13:19:53.489Z,2.30
2019-03-05T13:22:24.823Z,2.57
2019-03-05T13:24:57.335Z,2.63
2019-03-05T13:27:27.986Z,2.50
2019-03-05T13:29:59.521Z,2.20
2019-03-05T13:32:31.353Z,2.63
2019-03-05T13:35:02.780Z,2.50
2019-03-05T13:37:34.242Z,3.00
2019-03-05T13:40:11.988Z,2.30
2019-03-05T13:42:40.707Z,2.53
2019-03-05T13:45:12.794Z,2.40
2019-03-05T13:47:44.419Z,2.33
2019-03-05T13:50:30.985Z,2.37
2019-03-05T13:53:14.885Z,1.70
2019-03-05T13:55:50.490Z,3.10
2019-03-05T13:58:24.832Z,4.10
2019-03-05T14:00:56.413Z,2.40
2019-03-05T14:03:31.068Z,2.10
2019-03-05T14:06:37.256Z,2.40
2019-03-05T14:09:14.715Z,1.67
2019-03-05T14:11:48.186Z,3.33
2019-03-05T14:14:24.034Z,1.53
2019-03-05T14:16:57.858Z,1.97
2019-03-05T14:19:29.164Z,2.30
2019-03-05T14:21:57.724Z,2.70
2019-03-05T14:24:29.057Z,2.97
2019-03-05T14:27:00.695Z,3.13
2019-03-05T14:29:31.939Z,2.60
2019-03-05T14:32:03.261Z,3.00
2019-03-05T14:34:31.856Z,3.00
2019-03-05T14:37:00.457Z,3.17
2019-03-05T14:39:52.487Z,3.20
2019-03-05T14:42:24.136Z,2.30
2019-03-05T14:44:55.680Z,2.57
2019-03-05T14:47:27.575Z,2.43
2019-03-05T14:49:56.210Z,1.90
2019-03-05T14:52:27.755Z,1.50
2019-03-05T14:54:59.364Z,2.37
2019-03-05T14:57:30.623Z,1.53
2019-03-05T15:00:02.015Z,1.83
2019-03-05T15:02:33.695Z,1.60
2019-03-05T15:05:07.252Z,1.60
2019-03-05T15:07:35.783Z,1.90
2019-03-05T15:10:09.713Z,1.77
2019-03-05T15:12:41.461Z,2.63
2019-03-05T15:15:18.984Z,1.90
2019-03-05T15:17:51.003Z,1.80
2019-03-05T15:20:22.262Z,2.80
2019-03-05T15:22:54.095Z,2.13
2019-03-05T15:25:25.485Z,2.50
2019-03-05T15:27:57.064Z,2.60
2019-03-05T15:30:29.305Z,4.83
2019-03-05T15:33:01.219Z,3.13
2019-03-05T15:35:32.805Z,2.57
2019-03-05T15:38:04.091Z,2.97
2019-03-05T15:40:35.833Z,2.80
2019-03-05T15:43:07.416Z,3.23
2019-03-05T15:46:02.588Z,4.37
2019-03-05T15:48:34.191Z,3.07
2019-03-05T15:51:05.528Z,2.87
2019-03-05T15:53:37.223Z,3.00
2019-03-05T15:56:10.760Z,3.37
2019-03-05T15:58:42.070Z,3.00
2019-03-05T16:01:21.915Z,2.87
2019-03-05T16:03:46.832Z,2.60
2019-03-05T16:06:18.209Z,2.93
2019-03-05T16:08:47.277Z,4.57
2019-03-05T16:11:19.676Z,3.40
2019-03-05T16:13:52.405Z,4.60
2019-03-05T16:16:21.373Z,5.57
2019-03-05T16:18:53.056Z,5.00
2019-03-05T16:21:24.532Z,6.17
2019-03-05T16:23:55.805Z,8.67
2019-03-05T16:26:28.209Z,4.40
2019-03-05T16:28:59.989Z,3.80
2019-03-05T16:31:50.106Z,3.40
2019-03-05T16:34:24.375Z,3.83
2019-03-05T16:37:12.134Z,3.07
2019-03-05T16:39:42.477Z,3.57
2019-03-05T16:42:33.803Z,3.33
2019-03-05T16:45:08.874Z,3.27
2019-03-05T16:47:51.227Z,3.10
2019-03-05T16:50:21.584Z,3.23
2019-03-05T16:53:04.429Z,3.13
2019-03-05T16:55:43.845Z,3.00
2019-03-05T16:58:35.180Z,2.33
2019-03-05T17:01:23.716Z,2.60
2019-03-05T17:04:08.409Z,2.80
2019-03-05T17:06:38.758Z,2.77
2019-03-05T17:09:15.048Z,2.37
2019-03-05T17:11:58.501Z,3.00
2019-03-05T17:14:27.340Z,2.40
2019-03-05T17:16:55.898Z,1.33
2019-03-05T17:19:27.542Z,2.00
2019-03-05T17:21:56.249Z,2.40
2019-03-05T17:24:28.082Z,2.47
2019-03-05T17:26:59.609Z,2.60
2019-03-05T17:29:31.399Z,2.83
2019-03-05T17:32:02.976Z,2.67
2019-03-05T17:34:34.295Z,4.63
2019-03-05T17:37:02.925Z,3.63
2019-03-05T17:39:34.504Z,15.27
2019-03-05T17:42:05.790Z,5.70
2019-03-05T17:44:38.669Z,4.50
2019-03-05T17:47:10.233Z,3.90
2019-03-05T17:49:38.959Z,4.80
2019-03-05T17:52:07.583Z,3.80
2019-03-05T17:54:39.467Z,4.37
2019-03-05T17:57:10.684Z,5.07
2019-03-05T17:59:42.119Z,3.83
2019-03-05T18:02:13.902Z,3.60
2019-03-05T18:04:43.134Z,6.80
2019-03-05T18:07:12.098Z,13.00
2019-03-05T18:09:43.126Z,5.50
2019-03-05T18:12:14.704Z,4.60
2019-03-05T18:14:46.491Z,3.30
2019-03-05T18:17:15.804Z,5.10
2019-03-05T18:19:47.313Z,5.90
2019-03-05T18:22:19.321Z,4.23
2019-03-05T18:24:47.886Z,5.10
2019-03-05T18:27:20.027Z,4.10
2019-03-05T18:29:51.374Z,4.07
2019-03-05T18:32:22.885Z,5.10
2019-03-05T18:34:54.521Z,3.93
2019-03-05T18:37:26.085Z,4.50
2019-03-05T18:39:54.666Z,5.30
2019-03-05T18:42:26.191Z,3.73
2019-03-05T18:44:58.022Z,3.60
2019-03-05T18:47:26.742Z,3.63
2019-03-05T18:49:55.351Z,3.80
2019-03-05T18:52:23.966Z,4.40
2019-03-05T18:54:55.579Z,4.90
2019-03-05T18:57:24.137Z,3.53
2019-03-05T18:59:52.684Z,4.80
2019-03-05T19:02:21.634Z,3.87
2019-03-05T19:04:50.223Z,4.00
2019-03-05T19:07:19.660Z,3.47
2019-03-05T19:09:48.941Z,4.97
2019-03-05T19:12:25.993Z,4.57
2019-03-05T19:14:54.718Z,4.70
2019-03-05T19:17:24.316Z,5.90
2019-03-05T19:19:52.928Z,5.87
2019-03-05T19:22:21.930Z,4.70
2019-03-05T19:24:53.684Z,4.70
2019-03-05T19:27:26.779Z,5.67
2019-03-05T19:29:55.475Z,4.60
2019-03-05T19:32:25.381Z,4.60
2019-03-05T19:34:56.961Z,3.70
2019-03-05T19:37:27.079Z,4.40
2019-03-05T19:39:58.653Z,4.33
2019-03-05T19:42:30.747Z,4.50
2019-03-05T19:44:59.721Z,4.20
2019-03-05T19:47:30.973Z,4.53
2019-03-05T19:49:59.587Z,4.10
2019-03-05T19:52:28.573Z,4.13
2019-03-05T19:54:57.122Z,3.50
2019-03-05T19:57:25.772Z,4.90
2019-03-05T19:59:57.572Z,4.47
2019-03-05T20:02:28.823Z,3.73
2019-03-05T20:05:00.370Z,4.20
2019-03-05T20:07:29.411Z,4.90
2019-03-05T20:09:58.712Z,4.77
2019-03-05T20:12:27.532Z,5.30
2019-03-05T20:14:59.591Z,4.70
2019-03-05T20:17:28.302Z,4.40
2019-03-05T20:19:56.847Z,5.03
2019-03-05T20:22:25.430Z,5.23
2019-03-05T20:24:54.212Z,4.50
2019-03-05T20:27:23.220Z,4.70
2019-03-05T20:29:54.480Z,5.20
2019-03-05T20:32:23.881Z,5.00
2019-03-05T20:34:53.901Z,4.73
2019-03-05T20:37:22.483Z,4.87
2019-03-05T20:39:51.384Z,5.27
2019-03-05T20:42:20.236Z,5.03
2019-03-05T20:44:51.837Z,4.87
2019-03-05T20:47:20.461Z,5.30
2019-03-05T20:49:49.392Z,5.00
2019-03-05T20:52:18.128Z,4.70
2019-03-05T20:54:46.971Z,5.80
2019-03-05T20:57:15.697Z,4.67
2019-03-05T20:59:44.342Z,5.90
2019-03-05T21:02:12.999Z,5.03
2019-03-05T21:04:41.932Z,6.20
2019-03-05T21:07:10.468Z,5.17
2019-03-05T21:09:39.565Z,6.07
2019-03-05T21:12:09.938Z,6.33
2019-03-05T21:14:41.306Z,7.20
2019-03-05T21:17:09.896Z,6.17
2019-03-05T21:19:41.150Z,5.77
2019-03-05T21:22:09.779Z,6.20
2019-03-05T21:24:40.181Z,7.33
2019-03-05T21:27:11.685Z,6.50
2019-03-05T21:29:41.135Z,6.43
2019-03-05T21:32:10.079Z,6.50
2019-03-05T21:34:39.060Z,7.13
2019-03-05T21:37:08.165Z,6.10
2019-03-05T21:39:37.180Z,6.60
2019-03-05T21:42:08.810Z,6.10
2019-03-05T21:44:37.556Z,6.00
2019-03-05T21:47:08.856Z,6.13
2019-03-05T21:49:40.441Z,7.20
2019-03-05T21:52:10.534Z,6.63
2019-03-05T21:54:45.175Z,6.37
2019-03-05T21:57:16.758Z,7.40
2019-03-05T21:59:45.714Z,5.97
2019-03-05T22:02:17.265Z,7.10
2019-03-05T22:04:48.754Z,6.47
2019-03-05T22:07:20.428Z,6.53
2019-03-05T22:09:49.667Z,6.30
2019-03-05T22:12:21.145Z,6.90
2019-03-05T22:14:52.512Z,8.17
2019-03-05T22:17:24.061Z,9.00
2019-03-05T22:19:52.638Z,8.00
2019-03-05T22:22:24.292Z,8.30
2019-03-05T22:24:52.925Z,8.43
2019-03-05T22:27:24.300Z,7.17
2019-03-05T22:29:56.083Z,6.87
2019-03-05T22:32:27.392Z,8.07
2019-03-05T22:34:55.967Z,7.50
2019-03-05T22:37:27.793Z,8.70
2019-03-05T22:39:56.549Z,9.83
2019-03-05T22:42:28.041Z,8.40
2019-03-05T22:44:59.394Z,9.40
2019-03-05T22:47:28.025Z,9.00
2019-03-05T22:49:59.606Z,9.57
2019-03-05T22:52:30.877Z,8.43
2019-03-05T22:55:02.191Z,8.80
2019-03-05T22:57:33.559Z,7.87
2019-03-05T23:00:02.163Z,7.67
2019-03-05T23:02:34.012Z,7.53
2019-03-05T23:05:08.698Z,8.20
2019-03-05T23:07:38.879Z,7.50
2019-03-05T23:10:13.116Z,7.90
2019-03-05T23:12:41.732Z,7.77
2019-03-05T23:15:14.902Z,8.50
2019-03-05T23:17:46.587Z,7.10
2019-03-05T23:20:18.462Z,7.80
2019-03-05T23:22:50.319Z,7.53
2019-03-05T23:25:22.018Z,7.10
2019-03-05T23:27:50.603Z,7.47
2019-03-05T23:30:23.205Z,8.30
2019-03-05T23:32:54.917Z,7.70
2019-03-05T23:35:26.408Z,7.17
2019-03-05T23:37:57.622Z,7.80
2019-03-05T23:40:28.983Z,7.17
2019-03-05T23:43:00.287Z,8.43
2019-03-05T23:45:29.403Z,7.53
2019-03-05T23:48:00.949Z,8.47
2019-03-05T23:50:32.289Z,7.80
2019-03-05T23:53:03.787Z,7.93
2019-03-05T23:55:35.628Z,8.27
2019-03-05T23:58:04.321Z,8.07
